KCTZ/CTZ METAR and TAF weather

Enter ICAO airport designator
Station Type Date Time Source
KCTZ METAR 2019/08/19 07:35 UTC NOAA

KCTZ 190735Z AUTO 00000KT 7SM CLR 25/25 A3003 RMK AO2 T02450245


Station Type Date Time Source
KCTZ Decoded METAR 2019/08/19 07:35 UTC NOAA

Station name not available
Aug 19, 2019 - 03:35 AM EDT / 2019.08.19 0735 UTC
Wind: Calm:0
Visibility: 7 mile(s):0
Sky conditions: clear
Temperature: 76.1 F (24.5 C)
Dew Point: 76.1 F (24.5 C)
Relative Humidity: 100%
Pressure (altimeter): 30.03 in. Hg (1016 hPa)
ob: KCTZ 190735Z AUTO 00000KT 7SM CLR 25/25 A3003 RMK AO2 T02450245
cycle: 7

Station Type Date Time Source
KCTZ TAF UTC NOAA

Error!

Example: see airport list